Hlavní strana
METAR-TAF:

METAR-TAF

Letiště :

Letiště Praha-Kbely

Praha, Česká republika

zeměpisná šířka: 50-07-17N, zeměpisná délka: 14-32-37E, výška: 286 m

Aktuální stav počasí

Zpráva byla vytvořena před 15 minutami, v 17:00 UTC
Východoseverovýchodní vítr 10 kt
Teplota 3°C
Vlhkost vzduchu 48%
Tlak 1032 hPa
Viditelnost 10 km a více
Žádná oblačnost pod 1500 m, nevyskytují se cumulonimby.

METAR: LKKB 171700Z 07010KT CAVOK 03/M07 Q1032 NOSIG

Čas: 18:15 (17:15 UTC)

Předpověď počasí

Zpráva byla vytvořena před 6 hodinami a 15 minutami, v 11:00 UTC
Předpověď platná od 17 v 12 UTC do 18 v 12 UTC
Severovýchodní vítr 6 kt
Viditelnost 10 km a více
Žádná oblačnost pod 1500 m, nevyskytují se cumulonimby.
Změna
od 18 v 02 UTC do 18 v 04 UTC
vítr z různých směrů 2 kt
Změna
od 18 v 10 UTC do 18 v 12 UTC
Severní vítr 6 kt

TAF: LKKB 171100Z 1712/1812 05006KT CAVOK BECMG 1802/1804 VRB02KT BECMG 1810/1812 35006KT

Stav a předpovědi počasí z více než 4 000 letišť (zprávy METAR a TAF).

Červené a žluté tečky na mapě představují dostupné meteorologické stanice.

Když kurzor umístíte na tečku, zobrazí se název stanice.

Pak kliknutím zobrazíte stav a předpověď počasí.

Chcete-li změnit mapu, kliknutím na zelené tlačítko se znaménkem +mapu přiblížíte, kliknutím na zelené tlačítko se znaménkem – mapu oddálíte a kliknutím na zelené šipky přejdete na sousední mapy.


METAR-TAF: